createdAt,value
2022-09-18T00:01:31.469Z,11.37
2022-09-18T00:04:01.353Z,11.33
2022-09-18T00:06:31.008Z,11.38
2022-09-18T00:08:59.527Z,11.38
2022-09-18T00:11:30.187Z,11.34
2022-09-18T00:13:56.985Z,11.28
2022-09-18T00:16:24.732Z,11.38
2022-09-18T00:18:51.740Z,11.39
2022-09-18T00:21:22.386Z,11.44
2022-09-18T00:23:49.392Z,11.56
2022-09-18T00:26:18.507Z,11.55
2022-09-18T00:28:46.296Z,11.59
2022-09-18T00:31:22.085Z,11.53
2022-09-18T00:33:48.790Z,11.45
2022-09-18T00:36:18.265Z,11.54
2022-09-18T00:38:46.345Z,11.50
2022-09-18T00:41:37.813Z,11.56
2022-09-18T00:44:29.407Z,11.57
2022-09-18T00:47:18.613Z,11.59
2022-09-18T00:49:51.982Z,11.51
2022-09-18T00:52:23.701Z,11.65
2022-09-18T00:54:56.279Z,11.70
2022-09-18T00:57:27.548Z,11.74
2022-09-18T00:59:54.981Z,11.68
2022-09-18T01:02:22.166Z,11.62
2022-09-18T01:04:50.117Z,11.60
2022-09-18T01:07:41.606Z,11.52
2022-09-18T01:10:23.537Z,11.52
2022-09-18T01:13:06.194Z,11.48
2022-09-18T01:15:39.854Z,11.65
2022-09-18T01:18:25.418Z,11.71
2022-09-18T01:21:10.757Z,11.71
2022-09-18T01:23:55.812Z,11.74
2022-09-18T01:26:43.599Z,11.67
2022-09-18T01:29:49.966Z,11.63
2022-09-18T01:32:29.954Z,11.60
2022-09-18T01:35:09.869Z,11.63
2022-09-18T01:38:12.769Z,11.79
2022-09-18T01:40:58.706Z,11.74
2022-09-18T01:43:29.612Z,11.79
2022-09-18T01:45:59.855Z,11.74
2022-09-18T01:48:34.793Z,11.71
2022-09-18T01:51:11.987Z,11.73
2022-09-18T01:53:43.830Z,11.69
2022-09-18T01:56:24.272Z,11.72
2022-09-18T01:58:55.336Z,11.72
2022-09-18T02:01:27.694Z,11.73
2022-09-18T02:03:58.690Z,11.71
2022-09-18T02:06:41.873Z,11.75
2022-09-18T02:09:11.191Z,11.62
2022-09-18T02:11:44.879Z,11.64
2022-09-18T02:14:17.397Z,11.73
2022-09-18T02:17:18.436Z,11.69
2022-09-18T02:19:52.040Z,11.64
2022-09-18T02:22:21.342Z,11.68
2022-09-18T02:24:50.889Z,11.65
2022-09-18T02:27:18.798Z,11.63
2022-09-18T02:29:47.096Z,11.57
2022-09-18T02:32:14.141Z,11.71
2022-09-18T02:34:42.438Z,11.64
2022-09-18T02:37:24.377Z,11.62
2022-09-18T02:39:58.508Z,11.66
2022-09-18T02:42:46.618Z,11.57
2022-09-18T02:45:28.010Z,11.54
2022-09-18T02:48:14.027Z,11.58
2022-09-18T02:51:04.484Z,11.58
2022-09-18T02:53:35.406Z,11.62
2022-09-18T02:56:09.255Z,11.64
2022-09-18T02:58:55.122Z,11.69
2022-09-18T03:01:26.371Z,11.57
2022-09-18T03:03:53.768Z,11.66
2022-09-18T03:06:30.437Z,11.59
2022-09-18T03:08:57.263Z,11.68
2022-09-18T03:11:23.779Z,11.71
2022-09-18T03:13:50.950Z,11.72
2022-09-18T03:16:17.483Z,11.69
2022-09-18T03:18:44.012Z,11.61
2022-09-18T03:21:10.512Z,11.62
2022-09-18T03:23:40.231Z,11.63
2022-09-18T03:26:16.023Z,11.57
2022-09-18T03:28:44.129Z,11.64
2022-09-18T03:31:12.210Z,11.73
2022-09-18T03:33:39.061Z,11.64
2022-09-18T03:36:07.060Z,11.78
2022-09-18T03:38:37.742Z,11.85
2022-09-18T03:41:05.995Z,11.73
2022-09-18T03:43:32.753Z,11.84
2022-09-18T03:46:01.414Z,11.69
2022-09-18T03:48:28.220Z,11.65
2022-09-18T03:50:54.860Z,11.64
2022-09-18T03:53:22.135Z,11.67
2022-09-18T03:56:15.913Z,11.52
2022-09-18T03:59:03.271Z,11.51
2022-09-18T04:01:56.009Z,11.48
2022-09-18T04:04:25.630Z,11.51
2022-09-18T04:07:04.297Z,11.47
2022-09-18T04:09:49.762Z,11.45
2022-09-18T04:12:16.338Z,11.59
2022-09-18T04:14:45.164Z,11.56
2022-09-18T04:17:12.723Z,11.53
2022-09-18T04:19:40.752Z,11.49
2022-09-18T04:22:09.336Z,11.50
2022-09-18T04:24:39.520Z,11.48
2022-09-18T04:27:07.253Z,11.43
2022-09-18T04:29:34.216Z,11.48
2022-09-18T04:32:01.339Z,11.58
2022-09-18T04:34:28.404Z,11.57
2022-09-18T04:36:54.936Z,11.61
2022-09-18T04:39:21.722Z,11.75
2022-09-18T04:41:50.388Z,11.60
2022-09-18T04:44:19.205Z,11.54
2022-09-18T04:46:45.937Z,11.58
2022-09-18T04:49:15.345Z,11.57
2022-09-18T04:51:42.545Z,11.59
2022-09-18T04:54:09.852Z,11.62
2022-09-18T04:56:37.881Z,11.67
2022-09-18T04:59:04.426Z,11.67
2022-09-18T05:01:32.026Z,11.63
2022-09-18T05:04:02.780Z,11.68
2022-09-18T05:06:41.608Z,11.63
2022-09-18T05:09:08.128Z,11.61
2022-09-18T05:11:34.746Z,11.62
2022-09-18T05:14:01.381Z,11.61
2022-09-18T05:16:31.047Z,11.58
2022-09-18T05:19:20.986Z,11.56
2022-09-18T05:21:51.445Z,11.51
2022-09-18T05:24:18.867Z,11.48
2022-09-18T05:26:45.962Z,11.46
2022-09-18T05:29:12.759Z,11.48
2022-09-18T05:31:41.863Z,11.51
2022-09-18T05:34:08.665Z,11.48
2022-09-18T05:36:35.635Z,11.60
2022-09-18T05:39:02.355Z,11.57
2022-09-18T05:41:29.089Z,11.54
2022-09-18T05:43:55.784Z,11.60
2022-09-18T05:46:22.417Z,11.64
2022-09-18T05:48:55.564Z,11.57
2022-09-18T05:51:22.099Z,11.65
2022-09-18T05:53:48.756Z,11.61
2022-09-18T05:56:21.368Z,11.67
2022-09-18T05:58:48.004Z,11.67
2022-09-18T06:01:14.701Z,11.67
2022-09-18T06:03:57.480Z,11.56
2022-09-18T06:06:24.151Z,11.59
2022-09-18T06:08:50.715Z,11.64
2022-09-18T06:11:17.307Z,11.69
2022-09-18T06:13:44.465Z,11.72
2022-09-18T06:16:12.657Z,11.75
2022-09-18T06:19:01.691Z,11.68
2022-09-18T06:21:28.266Z,11.73
2022-09-18T06:23:56.765Z,11.71
2022-09-18T06:26:37.206Z,11.65
2022-09-18T06:29:05.778Z,11.70
2022-09-18T06:31:39.684Z,11.82
2022-09-18T06:34:09.124Z,11.81
2022-09-18T06:36:35.768Z,11.83
2022-09-18T06:39:16.946Z,11.84
2022-09-18T06:41:46.607Z,11.80
2022-09-18T06:44:42.051Z,11.70
2022-09-18T06:47:09.172Z,11.73
2022-09-18T06:49:42.211Z,11.85
2022-09-18T06:52:08.892Z,11.86
2022-09-18T06:54:37.072Z,11.86
2022-09-18T06:57:03.733Z,11.80
2022-09-18T06:59:31.290Z,11.77
2022-09-18T07:01:57.927Z,11.87
2022-09-18T07:04:40.762Z,11.70
2022-09-18T07:07:08.358Z,11.71
2022-09-18T07:09:35.291Z,11.78
2022-09-18T07:12:21.939Z,11.87
2022-09-18T07:14:52.020Z,11.91
2022-09-18T07:17:23.172Z,11.85
2022-09-18T07:19:53.627Z,11.80
2022-09-18T07:22:24.055Z,11.84
2022-09-18T07:24:50.976Z,11.73
2022-09-18T07:27:17.689Z,11.88
2022-09-18T07:29:44.688Z,11.88
2022-09-18T07:32:14.540Z,11.86
2022-09-18T07:34:44.125Z,11.87
2022-09-18T07:37:13.661Z,11.85
2022-09-18T07:39:44.071Z,11.86
2022-09-18T07:42:29.306Z,11.94
2022-09-18T07:44:56.107Z,11.89
2022-09-18T07:47:25.221Z,11.90
2022-09-18T07:49:52.413Z,11.95
2022-09-18T07:52:19.388Z,11.85
2022-09-18T07:54:51.487Z,11.84
2022-09-18T07:57:28.997Z,11.83
2022-09-18T08:00:26.715Z,11.88
2022-09-18T08:03:06.119Z,11.91
2022-09-18T08:05:52.621Z,11.98
2022-09-18T08:08:19.308Z,11.96
2022-09-18T08:10:56.280Z,11.96
2022-09-18T08:13:48.291Z,11.98
2022-09-18T08:16:44.023Z,11.88
2022-09-18T08:19:10.791Z,11.86
2022-09-18T08:21:44.247Z,11.91
2022-09-18T08:24:12.920Z,11.82
2022-09-18T08:26:40.324Z,11.84
2022-09-18T08:29:07.087Z,11.86
2022-09-18T08:31:35.602Z,11.49
2022-09-18T08:34:05.634Z,11.26
2022-09-18T08:36:32.310Z,11.16
2022-09-18T08:39:03.047Z,11.09
2022-09-18T08:41:51.277Z,11.19
2022-09-18T08:44:25.458Z,11.15
2022-09-18T08:47:05.142Z,11.19
2022-09-18T08:49:50.788Z,11.30
2022-09-18T08:52:23.293Z,11.21
2022-09-18T08:55:04.872Z,11.20
2022-09-18T08:57:59.855Z,11.14
2022-09-18T09:00:35.797Z,11.16
2022-09-18T09:03:46.844Z,11.26
2022-09-18T09:06:50.502Z,11.29
2022-09-18T09:09:43.397Z,11.27
2022-09-18T09:12:27.885Z,11.25
2022-09-18T09:15:22.436Z,11.16
2022-09-18T09:18:12.511Z,11.14
2022-09-18T09:20:47.832Z,11.27
2022-09-18T09:23:18.724Z,11.21
2022-09-18T09:26:06.430Z,11.25
2022-09-18T09:29:12.466Z,11.22
2022-09-18T09:32:05.575Z,11.16
2022-09-18T09:34:57.660Z,11.14
2022-09-18T09:37:43.622Z,11.04
2022-09-18T09:40:18.887Z,11.03
2022-09-18T09:43:30.454Z,11.08
2022-09-18T09:46:02.837Z,11.12
2022-09-18T09:48:35.720Z,11.21
2022-09-18T09:51:40.740Z,11.21
2022-09-18T09:54:11.649Z,11.17
2022-09-18T09:56:52.894Z,11.24
2022-09-18T09:59:47.222Z,11.26
2022-09-18T10:02:29.286Z,11.14
2022-09-18T10:05:06.494Z,11.25
2022-09-18T10:07:42.392Z,11.18
2022-09-18T10:10:30.583Z,11.27
2022-09-18T10:13:02.982Z,11.29
2022-09-18T10:15:45.799Z,11.32
2022-09-18T10:18:24.243Z,11.43
2022-09-18T10:20:56.208Z,11.33
2022-09-18T10:23:33.557Z,11.34
2022-09-18T10:26:01.566Z,11.38
2022-09-18T10:28:29.830Z,11.49
2022-09-18T10:31:02.280Z,11.46
2022-09-18T10:33:31.366Z,11.37
2022-09-18T10:36:16.600Z,11.37
2022-09-18T10:38:43.319Z,11.56
2022-09-18T10:41:35.201Z,11.62
2022-09-18T10:44:04.914Z,11.70
2022-09-18T10:46:35.691Z,11.65
2022-09-18T10:49:18.553Z,11.48
2022-09-18T10:51:45.418Z,11.61
2022-09-18T10:54:22.915Z,11.54
2022-09-18T10:57:25.386Z,11.44
2022-09-18T10:59:52.871Z,11.36
2022-09-18T11:02:22.174Z,11.45
2022-09-18T11:04:49.566Z,11.58
2022-09-18T11:07:24.985Z,11.80
2022-09-18T11:09:52.756Z,11.83
2022-09-18T11:12:22.877Z,11.64
2022-09-18T11:15:03.540Z,11.55
2022-09-18T11:17:34.979Z,11.52
2022-09-18T11:20:06.282Z,11.55
2022-09-18T11:22:53.871Z,11.37
2022-09-18T11:25:27.615Z,11.43
2022-09-18T11:28:21.557Z,11.33
2022-09-18T11:30:58.287Z,11.32
2022-09-18T11:33:29.504Z,11.52
2022-09-18T11:36:05.347Z,11.46
2022-09-18T11:38:40.089Z,11.61
2022-09-18T11:41:07.273Z,11.55
2022-09-18T11:43:41.415Z,11.72
2022-09-18T11:46:30.404Z,11.81
2022-09-18T11:49:19.358Z,11.92
2022-09-18T11:51:58.475Z,11.88
2022-09-18T11:55:09.215Z,11.97
2022-09-18T11:57:41.848Z,12.02
2022-09-18T12:00:20.662Z,12.03
2022-09-18T12:03:02.600Z,12.15
2022-09-18T12:05:53.042Z,12.06
2022-09-18T12:08:53.865Z,12.17
2022-09-18T12:11:50.608Z,12.20
2022-09-18T12:14:37.887Z,12.21
2022-09-18T12:17:38.571Z,12.26
2022-09-18T12:20:12.531Z,12.26
2022-09-18T12:22:46.716Z,12.16
2022-09-18T12:25:16.783Z,12.06
2022-09-18T12:28:30.654Z,11.95
2022-09-18T12:31:11.047Z,12.11
2022-09-18T12:34:16.052Z,12.26
2022-09-18T12:37:15.784Z,12.10
2022-09-18T12:39:43.096Z,12.11
2022-09-18T12:42:15.650Z,12.14
2022-09-18T12:44:57.137Z,12.10
2022-09-18T12:47:41.609Z,12.10
2022-09-18T12:50:42.478Z,12.13
2022-09-18T12:53:27.320Z,12.05
2022-09-18T12:55:59.941Z,11.98
2022-09-18T12:58:55.288Z,12.01
2022-09-18T13:01:24.583Z,11.91
2022-09-18T13:03:54.723Z,11.72
2022-09-18T13:06:35.084Z,11.59
2022-09-18T13:09:23.849Z,11.31
2022-09-18T13:11:56.164Z,11.22
2022-09-18T13:14:32.945Z,11.11
2022-09-18T13:17:13.623Z,11.06
2022-09-18T13:19:49.184Z,11.03
2022-09-18T13:22:17.306Z,10.94
2022-09-18T13:24:47.985Z,11.04
2022-09-18T13:27:17.964Z,11.11
2022-09-18T13:29:56.911Z,11.12
2022-09-18T13:32:35.174Z,11.12
2022-09-18T13:35:06.945Z,11.06
2022-09-18T13:37:33.788Z,11.22
2022-09-18T13:40:15.088Z,11.09
2022-09-18T13:42:43.447Z,11.14
2022-09-18T13:45:21.147Z,11.17
2022-09-18T13:48:01.148Z,11.29
2022-09-18T13:50:29.141Z,11.32
2022-09-18T13:52:57.544Z,11.39
2022-09-18T13:55:25.335Z,11.37
2022-09-18T13:57:52.800Z,11.45
2022-09-18T14:00:19.308Z,11.42
2022-09-18T14:02:49.958Z,11.40
2022-09-18T14:05:32.051Z,11.43
2022-09-18T14:08:04.184Z,11.27
2022-09-18T14:10:38.236Z,11.10
2022-09-18T14:13:27.521Z,11.13
2022-09-18T14:16:06.899Z,11.10
2022-09-18T14:18:39.706Z,11.19
2022-09-18T14:21:18.410Z,11.10
2022-09-18T14:23:45.936Z,11.10
2022-09-18T14:26:30.759Z,11.06
2022-09-18T14:29:13.030Z,10.99
2022-09-18T14:31:49.907Z,10.94
2022-09-18T14:34:42.723Z,10.97
2022-09-18T14:37:18.473Z,10.96
2022-09-18T14:39:45.616Z,10.86
2022-09-18T14:42:20.575Z,10.79
2022-09-18T14:44:52.325Z,10.83
2022-09-18T14:47:24.065Z,10.76
2022-09-18T14:49:51.242Z,10.66
2022-09-18T14:52:24.457Z,10.69
2022-09-18T14:54:54.314Z,10.75
2022-09-18T14:57:25.113Z,10.78
2022-09-18T14:59:54.079Z,10.77
2022-09-18T15:02:27.612Z,10.76
2022-09-18T15:04:55.081Z,10.62
2022-09-18T15:07:23.216Z,10.69
2022-09-18T15:09:54.125Z,10.61
2022-09-18T15:12:23.909Z,10.66
2022-09-18T15:14:50.695Z,10.76
2022-09-18T15:17:24.284Z,10.75
2022-09-18T15:20:09.295Z,10.69
2022-09-18T15:22:35.863Z,10.64
2022-09-18T15:25:02.564Z,10.68
2022-09-18T15:27:31.283Z,10.69
2022-09-18T15:30:02.443Z,10.59
2022-09-18T15:32:38.140Z,10.66
2022-09-18T15:35:06.426Z,10.62
2022-09-18T15:37:34.562Z,10.63
2022-09-18T15:40:19.754Z,10.61
2022-09-18T15:43:03.224Z,10.66
2022-09-18T15:45:32.572Z,10.60
2022-09-18T15:48:22.843Z,10.57
2022-09-18T15:50:49.570Z,10.47
2022-09-18T15:53:22.596Z,10.44
2022-09-18T15:55:54.391Z,10.40
2022-09-18T15:58:46.726Z,10.33
2022-09-18T16:01:23.532Z,10.38
2022-09-18T16:04:00.198Z,10.44
2022-09-18T16:06:29.421Z,10.38
2022-09-18T16:08:57.001Z,10.29
2022-09-18T16:11:40.456Z,10.29
2022-09-18T16:14:38.595Z,10.19
2022-09-18T16:17:30.674Z,10.09
2022-09-18T16:20:03.006Z,10.11
2022-09-18T16:22:30.817Z,9.99
2022-09-18T16:24:57.992Z,10.03
2022-09-18T16:27:26.076Z,9.99
2022-09-18T16:29:52.690Z,9.82
2022-09-18T16:32:21.015Z,9.72
2022-09-18T16:34:47.642Z,9.71
2022-09-18T16:37:16.971Z,9.86
2022-09-18T16:39:44.847Z,9.79
2022-09-18T16:42:18.351Z,9.67
2022-09-18T16:44:45.503Z,9.70
2022-09-18T16:47:13.912Z,9.71
2022-09-18T16:49:46.673Z,9.71
2022-09-18T16:52:13.817Z,9.62
2022-09-18T16:54:40.767Z,9.62
2022-09-18T16:57:07.494Z,9.63
2022-09-18T16:59:35.975Z,9.57
2022-09-18T17:02:04.894Z,9.43
2022-09-18T17:04:33.402Z,9.49
2022-09-18T17:07:00.585Z,9.59
2022-09-18T17:09:27.322Z,9.51
2022-09-18T17:11:54.444Z,9.60
2022-09-18T17:14:22.262Z,9.59
2022-09-18T17:16:49.037Z,9.57
2022-09-18T17:19:15.640Z,9.65
2022-09-18T17:21:42.698Z,9.72
2022-09-18T17:24:10.499Z,9.76
2022-09-18T17:26:39.135Z,9.66
2022-09-18T17:29:06.318Z,9.64
2022-09-18T17:31:33.022Z,9.68
2022-09-18T17:34:00.780Z,9.72
2022-09-18T17:36:27.533Z,9.69
2022-09-18T17:38:54.089Z,9.72
2022-09-18T17:41:20.967Z,9.67
2022-09-18T17:43:52.162Z,9.60
2022-09-18T17:46:19.557Z,9.55
2022-09-18T17:48:46.207Z,9.67
2022-09-18T17:51:15.267Z,9.62
2022-09-18T17:53:43.886Z,9.63
2022-09-18T17:56:16.363Z,9.57
2022-09-18T17:58:44.374Z,9.53
2022-09-18T18:01:13.690Z,9.61
2022-09-18T18:03:41.010Z,9.63
2022-09-18T18:06:08.463Z,9.68
2022-09-18T18:08:35.276Z,9.57
2022-09-18T18:11:05.701Z,9.61
2022-09-18T18:13:32.952Z,9.62
2022-09-18T18:16:14.384Z,9.61
2022-09-18T18:18:42.680Z,9.59
2022-09-18T18:21:10.755Z,9.53
2022-09-18T18:23:38.362Z,9.42
2022-09-18T18:26:10.019Z,9.45
2022-09-18T18:28:38.188Z,9.49
2022-09-18T18:31:12.037Z,9.42
2022-09-18T18:33:40.981Z,9.57
2022-09-18T18:36:20.893Z,9.50
2022-09-18T18:38:49.988Z,9.46
2022-09-18T18:41:19.040Z,9.47
2022-09-18T18:43:46.110Z,9.46
2022-09-18T18:46:15.320Z,9.37
2022-09-18T18:48:43.945Z,9.44
2022-09-18T18:51:16.107Z,9.38
2022-09-18T18:53:43.622Z,9.46
2022-09-18T18:56:13.846Z,9.52
2022-09-18T18:58:41.129Z,9.55
2022-09-18T19:01:13.383Z,9.55
2022-09-18T19:03:49.589Z,9.60
2022-09-18T19:06:16.820Z,9.59
2022-09-18T19:08:46.168Z,9.56
2022-09-18T19:11:15.206Z,9.57
2022-09-18T19:13:45.167Z,9.57
2022-09-18T19:16:12.918Z,9.59
2022-09-18T19:18:41.107Z,9.64
2022-09-18T19:21:07.902Z,9.56
2022-09-18T19:23:35.363Z,9.60
2022-09-18T19:26:02.967Z,9.56
2022-09-18T19:28:30.402Z,9.60
2022-09-18T19:31:04.486Z,9.65
2022-09-18T19:33:33.013Z,9.67
2022-09-18T19:36:07.065Z,9.55
2022-09-18T19:38:36.874Z,9.62
2022-09-18T19:41:16.336Z,9.65
2022-09-18T19:43:43.350Z,9.71
2022-09-18T19:46:16.570Z,9.72
2022-09-18T19:48:44.635Z,9.67
2022-09-18T19:51:11.185Z,9.72
2022-09-18T19:53:37.809Z,9.63
2022-09-18T19:56:18.590Z,9.63
2022-09-18T19:58:54.399Z,9.66
2022-09-18T20:01:21.057Z,9.74
2022-09-18T20:03:52.580Z,9.71
2022-09-18T20:06:19.768Z,9.70
2022-09-18T20:08:46.565Z,9.75
2022-09-18T20:11:13.059Z,9.71
2022-09-18T20:13:39.552Z,9.77
2022-09-18T20:16:09.752Z,9.74
2022-09-18T20:18:37.737Z,9.83
2022-09-18T20:21:10.914Z,9.75
2022-09-18T20:23:37.965Z,9.72
2022-09-18T20:26:09.205Z,9.83
2022-09-18T20:28:36.597Z,9.82
2022-09-18T20:31:08.401Z,9.97
2022-09-18T20:33:35.610Z,9.87
2022-09-18T20:36:02.514Z,9.93
2022-09-18T20:38:34.293Z,9.92
2022-09-18T20:41:07.415Z,9.92
2022-09-18T20:43:35.529Z,9.88
2022-09-18T20:46:05.328Z,9.95
2022-09-18T20:48:38.447Z,9.93
2022-09-18T20:51:10.188Z,10.05
2022-09-18T20:53:39.172Z,10.03
2022-09-18T20:56:10.450Z,10.12
2022-09-18T20:58:39.094Z,10.12
2022-09-18T21:01:13.328Z,10.11
2022-09-18T21:03:44.668Z,10.10
2022-09-18T21:06:22.901Z,10.08
2022-09-18T21:08:53.236Z,10.15
2022-09-18T21:11:24.708Z,10.08
2022-09-18T21:13:56.507Z,10.07
2022-09-18T21:16:26.061Z,10.08
2022-09-18T21:18:56.110Z,10.11
2022-09-18T21:21:24.079Z,10.12
2022-09-18T21:23:53.508Z,10.16
2022-09-18T21:26:30.624Z,10.31
2022-09-18T21:29:06.312Z,10.26
2022-09-18T21:31:36.482Z,10.22
2022-09-18T21:34:04.399Z,10.19
2022-09-18T21:36:33.510Z,10.20
2022-09-18T21:39:00.296Z,10.27
2022-09-18T21:41:26.830Z,10.40
2022-09-18T21:43:53.962Z,10.59
2022-09-18T21:46:22.191Z,10.61
2022-09-18T21:48:52.978Z,10.60
2022-09-18T21:51:19.599Z,10.50
2022-09-18T21:53:46.320Z,10.45
2022-09-18T21:56:17.165Z,10.43
2022-09-18T21:58:45.013Z,10.37
2022-09-18T22:01:20.725Z,10.25
2022-09-18T22:03:54.745Z,10.25
2022-09-18T22:06:41.764Z,10.26
2022-09-18T22:09:14.145Z,10.34
2022-09-18T22:11:42.151Z,10.32
2022-09-18T22:14:14.351Z,10.31
2022-09-18T22:16:42.954Z,10.27
2022-09-18T22:19:10.210Z,10.24
2022-09-18T22:21:39.574Z,10.31
2022-09-18T22:24:09.334Z,10.28
2022-09-18T22:26:39.770Z,10.16
2022-09-18T22:29:08.357Z,10.19
2022-09-18T22:31:36.403Z,10.25
2022-09-18T22:34:03.627Z,10.25
2022-09-18T22:36:30.258Z,10.21
2022-09-18T22:38:56.985Z,10.15
2022-09-18T22:41:23.851Z,10.18
2022-09-18T22:43:57.490Z,10.25
2022-09-18T22:46:25.998Z,10.31
2022-09-18T22:48:52.866Z,10.27
2022-09-18T22:51:24.198Z,10.30
2022-09-18T22:53:58.970Z,10.22
2022-09-18T22:56:27.799Z,10.26
2022-09-18T22:58:55.979Z,10.17
2022-09-18T23:01:25.086Z,10.24
2022-09-18T23:03:54.200Z,10.30
2022-09-18T23:06:25.386Z,10.40
2022-09-18T23:08:57.314Z,10.35
2022-09-18T23:11:25.875Z,10.35
2022-09-18T23:13:53.761Z,10.44
2022-09-18T23:16:22.244Z,10.39
2022-09-18T23:18:54.194Z,10.46
2022-09-18T23:21:22.472Z,10.38
2022-09-18T23:23:50.221Z,10.31
2022-09-18T23:26:23.216Z,10.31
2022-09-18T23:28:52.585Z,10.32
2022-09-18T23:31:22.002Z,10.21
2022-09-18T23:33:53.884Z,10.22
2022-09-18T23:36:20.364Z,10.28
2022-09-18T23:38:47.925Z,10.25
2022-09-18T23:41:16.105Z,10.31
2022-09-18T23:43:48.479Z,10.27
2022-09-18T23:46:16.336Z,10.32
2022-09-18T23:48:43.984Z,10.28
2022-09-18T23:51:12.276Z,10.37
2022-09-18T23:53:40.612Z,10.33
2022-09-18T23:56:11.069Z,10.35
2022-09-18T23:58:38.774Z,10.36
